East Amana, Iowa
Current Conditions -  °F | °C
As of 3:52 AM on Wednesday 26 Nov 2014 (Local Time) from KCID Reporting Station
Few Clouds Few Clouds  
Wind Chill: 13°   Ceiling: Unl
Heat Index: 22°   Visibility: 8mi
Dew Point: 20°   Wind: 8mph
Humidity: 92%   Direction: 130°SE
Pressure: 30.02"   Gusts: NA
Location:  41.8244°N, 91.8792°W
Report Text: KCID 260952Z AUTO 13007KT 8SM FEW120 M06/M07 A3002 RMK AO2 SLP176 T10561067
Loading
Personal Weather Stations






























Interactive Weather Map New forecast layout! Learn more

10-Day Weather Forecast

Advertisements
Track Severe Weather on mobile